createdAt,value
2023-05-15T00:02:02.184Z,47.69
2023-05-15T00:07:02.174Z,47.95
2023-05-15T00:12:02.185Z,47.95
2023-05-15T00:17:02.177Z,48.07
2023-05-15T00:22:02.188Z,48.55
2023-05-15T00:27:02.190Z,48.94
2023-05-15T00:32:02.181Z,49.32
2023-05-15T00:37:02.195Z,49.88
2023-05-15T00:42:02.184Z,49.65
2023-05-15T00:47:02.196Z,49.57
2023-05-15T00:52:02.198Z,49.5
2023-05-15T00:57:02.198Z,48.97
2023-05-15T01:02:02.200Z,48.93
2023-05-15T01:07:02.191Z,48.9
2023-05-15T01:12:02.203Z,48.97
2023-05-15T01:17:02.194Z,48.64
2023-05-15T01:22:02.206Z,48.7
2023-05-15T01:27:02.207Z,48.75
2023-05-15T01:32:02.198Z,48.39
2023-05-15T01:37:02.210Z,48.23
2023-05-15T01:42:02.202Z,48.32
2023-05-15T01:47:02.213Z,48.31
2023-05-15T01:52:02.215Z,48.26
2023-05-15T01:57:02.216Z,48.45
2023-05-15T02:02:02.219Z,48.42
2023-05-15T02:07:02.209Z,48.33
2023-05-15T02:12:02.220Z,48.37
2023-05-15T02:17:02.212Z,48.1
2023-05-15T02:22:02.223Z,47.87
2023-05-15T02:27:02.225Z,48.08
2023-05-15T02:32:02.250Z,48.29
2023-05-15T02:37:02.228Z,48.6
2023-05-15T02:42:02.219Z,48.41
2023-05-15T02:47:02.230Z,48.35
2023-05-15T02:52:02.240Z,48.23
2023-05-15T02:57:02.233Z,48.55
2023-05-15T03:02:02.235Z,48.28
2023-05-15T03:07:02.226Z,48.44
2023-05-15T03:12:02.240Z,48.68
2023-05-15T03:17:02.229Z,48.7
2023-05-15T03:22:02.241Z,48.5
2023-05-15T03:27:02.242Z,48.45
2023-05-15T03:32:02.243Z,48.4
2023-05-15T03:37:02.245Z,48
2023-05-15T03:42:02.236Z,48.15
2023-05-15T03:47:02.248Z,48.36
2023-05-15T03:52:02.239Z,48.47
2023-05-15T03:57:02.251Z,48.75
2023-05-15T04:02:02.252Z,48.68
2023-05-15T04:07:02.243Z,48.73
2023-05-15T04:12:02.255Z,48.52
2023-05-15T04:17:02.246Z,48.65
2023-05-15T04:22:02.258Z,48.62
2023-05-15T04:27:02.260Z,48.35
2023-05-15T04:32:02.260Z,48.21
2023-05-15T04:37:02.262Z,47.89
2023-05-15T04:42:02.253Z,47.99
2023-05-15T04:47:02.266Z,47.62
2023-05-15T04:52:02.256Z,47.19
2023-05-15T04:57:02.267Z,47.22
2023-05-15T05:02:02.269Z,46.44
2023-05-15T05:07:02.260Z,45.91
2023-05-15T05:12:02.274Z,45.96
2023-05-15T05:17:02.263Z,46.25
2023-05-15T05:22:02.276Z,46.27
2023-05-15T05:27:02.266Z,46.37
2023-05-15T05:32:02.278Z,46.23
2023-05-15T05:37:02.279Z,45.7
2023-05-15T05:47:02.308Z,45.88
2023-05-15T05:52:02.274Z,46.63
2023-05-15T05:57:02.286Z,46.29
2023-05-15T06:02:02.287Z,46.3
2023-05-15T06:07:02.289Z,46.04
2023-05-15T06:12:02.292Z,46.43
2023-05-15T06:17:02.281Z,46.08
2023-05-15T06:22:02.294Z,45.77
2023-05-15T06:27:02.284Z,45.29
2023-05-15T06:32:02.297Z,44.92
2023-05-15T06:37:02.298Z,44.75
2023-05-15T06:42:02.289Z,44.95
2023-05-15T06:47:02.303Z,44.42
2023-05-15T06:52:02.293Z,44.67
2023-05-15T06:57:02.305Z,44.92
2023-05-15T07:02:02.306Z,44.36
2023-05-15T07:07:02.309Z,44.27
2023-05-15T07:12:02.310Z,43.49
2023-05-15T07:22:02.314Z,45.12
2023-05-15T07:27:02.305Z,44.83
2023-05-15T07:32:02.318Z,43.92
2023-05-15T07:37:02.319Z,44.51
2023-05-15T07:42:02.311Z,43.79
2023-05-15T07:47:02.325Z,44.09
2023-05-15T07:52:02.315Z,44.84
2023-05-15T07:57:02.328Z,44.6
2023-05-15T08:02:02.330Z,44.25
2023-05-15T08:07:02.332Z,44.5
2023-05-15T08:12:02.335Z,44.58
2023-05-15T08:17:02.325Z,43.24
2023-05-15T08:22:02.337Z,35.15
2023-05-15T08:27:02.329Z,34.4
2023-05-15T08:32:02.342Z,29.36
2023-05-15T08:37:02.344Z,28.21
2023-05-15T08:42:02.335Z,28.32
2023-05-15T08:47:02.351Z,30.77
2023-05-15T08:52:02.342Z,34.61
2023-05-15T08:57:02.355Z,40
2023-05-15T09:02:02.357Z,38.24
2023-05-15T09:07:02.360Z,41.15
2023-05-15T09:12:02.412Z,42.49
2023-05-15T09:17:02.354Z,33.43
2023-05-15T09:22:02.411Z,35.38
2023-05-15T09:27:02.360Z,41.66
2023-05-15T09:32:02.373Z,46.02
2023-05-15T09:37:02.374Z,47.99
2023-05-15T09:42:02.418Z,44.43
2023-05-15T09:47:02.381Z,35.94
2023-05-15T09:52:02.372Z,38.05
2023-05-15T09:57:02.385Z,43.86
2023-05-15T10:02:02.377Z,42.47
2023-05-15T10:07:02.390Z,36.08
2023-05-15T10:12:02.392Z,32.44
2023-05-15T10:17:02.385Z,32.03
2023-05-15T10:22:02.400Z,34.02
2023-05-15T10:27:02.390Z,35.87
2023-05-15T10:32:02.404Z,36.49
2023-05-15T10:37:02.406Z,41.48
2023-05-15T10:42:02.410Z,36.21
2023-05-15T10:47:02.414Z,38.33
2023-05-15T10:52:02.404Z,45.99
2023-05-15T10:57:02.418Z,50.52
2023-05-15T11:02:02.409Z,50.9
2023-05-15T11:07:02.423Z,50.1
2023-05-15T11:12:02.424Z,52.03
2023-05-15T11:17:02.415Z,53.31
2023-05-15T11:22:02.430Z,53.3
2023-05-15T11:27:02.421Z,53.05
2023-05-15T11:32:02.434Z,52.32
2023-05-15T11:37:02.425Z,51.2
2023-05-15T11:42:02.438Z,50.22
2023-05-15T11:47:02.441Z,49.71
2023-05-15T11:52:02.431Z,49.45
2023-05-15T11:57:02.496Z,48.65
2023-05-15T12:02:02.436Z,47.46
2023-05-15T12:07:02.489Z,40.33
2023-05-15T12:12:02.450Z,33.7
2023-05-15T12:17:02.454Z,33.29
2023-05-15T12:22:02.458Z,32.19
2023-05-15T12:27:02.449Z,31.51
2023-05-15T12:32:02.462Z,31.54
2023-05-15T12:37:02.454Z,34.98
2023-05-15T12:42:02.468Z,35.9
2023-05-15T12:47:02.470Z,34.26
2023-05-15T12:52:02.463Z,33.17
2023-05-15T12:57:02.478Z,33.62
2023-05-15T13:02:02.469Z,38.01
2023-05-15T13:07:02.483Z,36.37
2023-05-15T13:12:02.484Z,36.53
2023-05-15T13:17:02.488Z,37.34
2023-05-15T13:22:02.491Z,41.16
2023-05-15T13:27:02.483Z,46.23
2023-05-15T13:32:02.495Z,42.14
2023-05-15T13:37:02.488Z,45.57
2023-05-15T13:42:02.502Z,49.18
2023-05-15T13:47:02.503Z,53.74
2023-05-15T13:52:02.495Z,55.41
2023-05-15T13:57:02.510Z,55.36
2023-05-15T14:02:02.500Z,54.8
2023-05-15T14:07:02.513Z,53.22
2023-05-15T14:12:02.514Z,51.32
2023-05-15T14:17:02.518Z,49.37
2023-05-15T14:22:02.569Z,50.6
2023-05-15T14:27:02.511Z,53.55
2023-05-15T14:32:02.567Z,55.26
2023-05-15T14:37:02.515Z,55.66
2023-05-15T14:42:02.528Z,53.81
2023-05-15T14:47:02.529Z,47.34
2023-05-15T14:52:02.572Z,42.91
2023-05-15T14:57:02.536Z,41.47
2023-05-15T15:02:02.526Z,39.68
2023-05-15T15:07:02.540Z,39.49
2023-05-15T15:12:02.531Z,39.55
2023-05-15T15:17:02.544Z,40.36
2023-05-15T15:22:02.546Z,41.83
2023-05-15T15:27:02.538Z,43.31
2023-05-15T15:32:02.553Z,44.85
2023-05-15T15:37:02.543Z,44.91
2023-05-15T15:42:02.557Z,45.07
2023-05-15T15:47:02.558Z,47.03
2023-05-15T15:52:02.561Z,48.85
2023-05-15T15:57:02.565Z,48.18
2023-05-15T16:02:02.555Z,47.12
2023-05-15T16:07:02.568Z,47.16
2023-05-15T16:12:02.560Z,48.26
2023-05-15T16:17:02.573Z,48.52
2023-05-15T16:22:02.574Z,48.3
2023-05-15T16:27:02.565Z,49.03
2023-05-15T16:37:02.571Z,49.08
2023-05-15T16:42:02.584Z,48.89
2023-05-15T16:47:02.585Z,49.1
2023-05-15T16:52:02.588Z,49.31
2023-05-15T16:57:02.591Z,49.97
2023-05-15T17:02:02.582Z,50.26
2023-05-15T17:07:02.594Z,49.97
2023-05-15T17:12:02.586Z,49.41
2023-05-15T17:17:02.623Z,49.15
2023-05-15T17:22:02.600Z,49.02
2023-05-15T17:27:02.603Z,48.2
2023-05-15T17:32:02.604Z,48.3
2023-05-15T17:37:02.596Z,48.94
2023-05-15T17:42:02.608Z,49.8
2023-05-15T17:47:02.600Z,50.24
2023-05-15T17:52:02.613Z,50.38
2023-05-15T17:57:02.614Z,50.2
2023-05-15T18:02:02.606Z,50.01
2023-05-15T18:07:02.620Z,50.05
2023-05-15T18:12:02.610Z,50.07
2023-05-15T18:17:02.622Z,50.23
2023-05-15T18:22:02.624Z,49.89
2023-05-15T18:27:02.627Z,49.9
2023-05-15T18:32:02.629Z,50.21
2023-05-15T18:37:02.620Z,50.31
2023-05-15T18:42:02.631Z,50.29
2023-05-15T18:47:02.623Z,50.15
2023-05-15T18:52:02.635Z,50.23
2023-05-15T18:57:02.638Z,50.36
2023-05-15T19:02:02.629Z,50.41
2023-05-15T19:07:02.643Z,50.37
2023-05-15T19:12:02.632Z,50.1
2023-05-15T19:17:02.644Z,50
2023-05-15T19:22:02.646Z,49.96
2023-05-15T19:27:02.648Z,50.09
2023-05-15T19:32:02.649Z,49.84
2023-05-15T19:37:02.641Z,49.91
2023-05-15T19:42:02.653Z,50.29
2023-05-15T19:47:02.645Z,50.7
2023-05-15T19:52:02.656Z,51
2023-05-15T19:57:02.658Z,50.57
2023-05-15T20:02:02.710Z,50.35
2023-05-15T20:07:02.661Z,50.43
2023-05-15T20:12:02.653Z,50.37
2023-05-15T20:17:02.664Z,50.54
2023-05-15T20:22:02.656Z,50.31
2023-05-15T20:27:02.668Z,50.56
2023-05-15T20:32:02.669Z,50.58
2023-05-15T20:37:02.661Z,50.33
2023-05-15T20:42:02.672Z,50.06
2023-05-15T20:47:02.664Z,50.37
2023-05-15T20:52:02.675Z,50.29
2023-05-15T20:57:02.677Z,50.15
2023-05-15T21:02:02.679Z,50.37
2023-05-15T21:07:02.680Z,50.17
2023-05-15T21:12:02.671Z,49.76
2023-05-15T21:17:02.683Z,49.57
2023-05-15T21:22:02.675Z,50.01
2023-05-15T21:27:02.686Z,50.27
2023-05-15T21:32:02.688Z,49.71
2023-05-15T21:37:02.679Z,49.76
2023-05-15T21:42:02.691Z,49.5
2023-05-15T21:47:02.682Z,49.41
2023-05-15T21:52:02.693Z,49.46
2023-05-15T21:57:02.695Z,49.68
2023-05-15T22:02:02.696Z,49.72
2023-05-15T22:07:02.698Z,49.73
2023-05-15T22:12:02.689Z,49.85
2023-05-15T22:17:02.701Z,49.74
2023-05-15T22:22:02.692Z,49.65
2023-05-15T22:27:02.727Z,49.56
2023-05-15T22:32:02.705Z,49.82
2023-05-15T22:37:02.708Z,49.7
2023-05-15T22:42:02.710Z,49.35
2023-05-15T22:47:02.699Z,49.43
2023-05-15T22:52:02.710Z,49.83
2023-05-15T22:57:02.702Z,49.71
2023-05-15T23:02:02.713Z,49.62
2023-05-15T23:07:02.715Z,49.42
2023-05-15T23:12:02.706Z,49.19
2023-05-15T23:17:02.719Z,49.37
2023-05-15T23:22:02.709Z,49.33
2023-05-15T23:27:02.720Z,49.19
2023-05-15T23:32:02.721Z,49.16
2023-05-15T23:37:02.723Z,48.91
2023-05-15T23:42:02.724Z,49
2023-05-15T23:47:02.715Z,49.27
2023-05-15T23:52:02.727Z,49.55
2023-05-15T23:57:02.718Z,49.69
